sensor_id;sensor_type;location;lat;lon;timestamp;temperature;humidity
506;DHT22;551;48.524;9.056;2022-12-18T00:02:11;-8.10;1.00
506;DHT22;551;48.524;9.056;2022-12-18T00:04:37;-8.30;1.00
506;DHT22;551;48.524;9.056;2022-12-18T00:07:02;-8.10;1.00
506;DHT22;551;48.524;9.056;2022-12-18T00:09:28;-8.00;1.00
506;DHT22;551;48.524;9.056;2022-12-18T00:11:53;-8.10;1.00
506;DHT22;551;48.524;9.056;2022-12-18T00:14:19;-8.30;1.00
506;DHT22;551;48.524;9.056;2022-12-18T00:16:45;-8.20;1.00
506;DHT22;551;48.524;9.056;2022-12-18T00:19:12;-8.00;1.00
506;DHT22;551;48.524;9.056;2022-12-18T00:21:38;-8.00;1.00
506;DHT22;551;48.524;9.056;2022-12-18T00:24:04;-7.90;1.00
506;DHT22;551;48.524;9.056;2022-12-18T00:26:31;-8.20;1.00
506;DHT22;551;48.524;9.056;2022-12-18T00:29:05;-8.30;1.00
506;DHT22;551;48.524;9.056;2022-12-18T00:31:31;-8.30;1.00
506;DHT22;551;48.524;9.056;2022-12-18T00:33:57;-8.40;1.00
506;DHT22;551;48.524;9.056;2022-12-18T00:36:28;-8.50;1.00
506;DHT22;551;48.524;9.056;2022-12-18T00:38:55;-8.50;1.00
506;DHT22;551;48.524;9.056;2022-12-18T00:41:22;-8.50;1.00
506;DHT22;551;48.524;9.056;2022-12-18T00:44:09;-8.70;1.00
506;DHT22;551;48.524;9.056;2022-12-18T00:46:35;-8.60;1.00
506;DHT22;551;48.524;9.056;2022-12-18T00:49:01;-8.60;1.00
506;DHT22;551;48.524;9.056;2022-12-18T00:51:26;-8.70;1.00
506;DHT22;551;48.524;9.056;2022-12-18T00:53:52;-8.70;1.00
506;DHT22;551;48.524;9.056;2022-12-18T00:56:18;-8.70;1.00
506;DHT22;551;48.524;9.056;2022-12-18T00:58:46;-8.60;1.00
506;DHT22;551;48.524;9.056;2022-12-18T01:01:12;-8.70;1.00
506;DHT22;551;48.524;9.056;2022-12-18T01:03:37;-8.60;1.00
506;DHT22;551;48.524;9.056;2022-12-18T01:06:10;-8.60;1.00
506;DHT22;551;48.524;9.056;2022-12-18T01:08:37;-8.50;1.00
506;DHT22;551;48.524;9.056;2022-12-18T01:11:15;-8.50;1.00
506;DHT22;551;48.524;9.056;2022-12-18T01:13:41;-8.60;1.00
506;DHT22;551;48.524;9.056;2022-12-18T01:16:07;-8.80;1.00
506;DHT22;551;48.524;9.056;2022-12-18T01:18:34;-8.70;1.00
506;DHT22;551;48.524;9.056;2022-12-18T01:21:00;-8.80;1.00
506;DHT22;551;48.524;9.056;2022-12-18T01:23:25;-8.90;1.00
506;DHT22;551;48.524;9.056;2022-12-18T01:25:51;-8.90;1.00
506;DHT22;551;48.524;9.056;2022-12-18T01:28:16;-8.90;1.00
506;DHT22;551;48.524;9.056;2022-12-18T01:30:42;-8.90;1.00
506;DHT22;551;48.524;9.056;2022-12-18T01:33:07;-9.10;1.00
506;DHT22;551;48.524;9.056;2022-12-18T01:35:32;-9.00;1.00
506;DHT22;551;48.524;9.056;2022-12-18T01:37:58;-9.00;1.00
506;DHT22;551;48.524;9.056;2022-12-18T01:40:23;-9.10;1.00
506;DHT22;551;48.524;9.056;2022-12-18T01:42:51;-9.10;1.00
506;DHT22;551;48.524;9.056;2022-12-18T01:45:22;-8.90;1.00
506;DHT22;551;48.524;9.056;2022-12-18T01:47:54;-8.90;1.00
506;DHT22;551;48.524;9.056;2022-12-18T01:53:05;-9.00;1.00
506;DHT22;551;48.524;9.056;2022-12-18T01:55:37;-9.00;1.00
506;DHT22;551;48.524;9.056;2022-12-18T01:58:03;-9.00;1.00
506;DHT22;551;48.524;9.056;2022-12-18T02:00:29;-8.90;1.00
506;DHT22;551;48.524;9.056;2022-12-18T02:02:55;-9.10;1.00
506;DHT22;551;48.524;9.056;2022-12-18T02:08:03;-9.10;1.00
506;DHT22;551;48.524;9.056;2022-12-18T02:10:41;-9.10;1.00
506;DHT22;551;48.524;9.056;2022-12-18T02:13:50;-9.10;1.00
506;DHT22;551;48.524;9.056;2022-12-18T02:16:19;-9.00;1.00
506;DHT22;551;48.524;9.056;2022-12-18T02:18:49;-9.10;1.00
506;DHT22;551;48.524;9.056;2022-12-18T02:21:34;-9.10;1.00
506;DHT22;551;48.524;9.056;2022-12-18T02:27:07;-9.10;1.00
506;DHT22;551;48.524;9.056;2022-12-18T02:29:36;-9.00;1.00
506;DHT22;551;48.524;9.056;2022-12-18T02:32:07;-9.00;1.00
506;DHT22;551;48.524;9.056;2022-12-18T02:34:37;-8.90;1.00
506;DHT22;551;48.524;9.056;2022-12-18T02:37:05;-8.90;1.00
506;DHT22;551;48.524;9.056;2022-12-18T02:39:36;-8.80;1.00
506;DHT22;551;48.524;9.056;2022-12-18T02:42:02;-9.00;1.00
506;DHT22;551;48.524;9.056;2022-12-18T02:44:46;-8.90;1.00
506;DHT22;551;48.524;9.056;2022-12-18T02:47:13;-8.90;1.00
506;DHT22;551;48.524;9.056;2022-12-18T02:50:02;-8.80;1.00
506;DHT22;551;48.524;9.056;2022-12-18T02:52:45;-8.70;1.00
506;DHT22;551;48.524;9.056;2022-12-18T03:01:24;-8.60;1.00
506;DHT22;551;48.524;9.056;2022-12-18T03:04:01;-8.70;1.00
506;DHT22;551;48.524;9.056;2022-12-18T03:06:32;-8.60;1.00
506;DHT22;551;48.524;9.056;2022-12-18T03:09:02;-8.70;1.00
506;DHT22;551;48.524;9.056;2022-12-18T03:11:31;-8.90;1.00
506;DHT22;551;48.524;9.056;2022-12-18T03:14:18;-8.80;1.00
506;DHT22;551;48.524;9.056;2022-12-18T03:16:45;-8.90;1.00
506;DHT22;551;48.524;9.056;2022-12-18T03:19:17;-8.80;1.00
506;DHT22;551;48.524;9.056;2022-12-18T03:21:49;-8.90;1.00
506;DHT22;551;48.524;9.056;2022-12-18T03:24:17;-8.90;1.00
506;DHT22;551;48.524;9.056;2022-12-18T03:26:47;-8.80;1.00
506;DHT22;551;48.524;9.056;2022-12-18T03:29:21;-8.70;1.00
506;DHT22;551;48.524;9.056;2022-12-18T03:31:53;-8.70;1.00
506;DHT22;551;48.524;9.056;2022-12-18T03:34:23;-8.70;1.00
506;DHT22;551;48.524;9.056;2022-12-18T03:36:49;-8.70;1.00
506;DHT22;551;48.524;9.056;2022-12-18T03:39:15;-8.70;1.00
506;DHT22;551;48.524;9.056;2022-12-18T03:41:49;-8.60;1.00
506;DHT22;551;48.524;9.056;2022-12-18T03:44:29;-8.60;1.00
506;DHT22;551;48.524;9.056;2022-12-18T03:47:16;-8.60;1.00
506;DHT22;551;48.524;9.056;2022-12-18T03:49:48;-8.60;1.00
506;DHT22;551;48.524;9.056;2022-12-18T03:52:25;-8.70;1.00
506;DHT22;551;48.524;9.056;2022-12-18T03:54:52;-8.60;1.00
506;DHT22;551;48.524;9.056;2022-12-18T03:57:23;-8.70;1.00
506;DHT22;551;48.524;9.056;2022-12-18T03:59:54;-8.70;1.00
506;DHT22;551;48.524;9.056;2022-12-18T04:02:22;-8.60;1.00
506;DHT22;551;48.524;9.056;2022-12-18T04:04:52;-8.70;1.00
506;DHT22;551;48.524;9.056;2022-12-18T04:07:19;-8.80;1.00
506;DHT22;551;48.524;9.056;2022-12-18T04:09:48;-8.90;1.00
506;DHT22;551;48.524;9.056;2022-12-18T04:12:14;-8.90;1.00
506;DHT22;551;48.524;9.056;2022-12-18T04:14:40;-8.90;1.00
506;DHT22;551;48.524;9.056;2022-12-18T04:17:05;-8.90;1.00
506;DHT22;551;48.524;9.056;2022-12-18T04:19:31;-8.90;1.00
506;DHT22;551;48.524;9.056;2022-12-18T04:21:56;-8.90;1.00
506;DHT22;551;48.524;9.056;2022-12-18T04:24:22;-8.80;1.00
506;DHT22;551;48.524;9.056;2022-12-18T04:26:47;-8.80;1.00
506;DHT22;551;48.524;9.056;2022-12-18T04:29:13;-8.50;1.00
506;DHT22;551;48.524;9.056;2022-12-18T04:31:38;-8.20;1.00
506;DHT22;551;48.524;9.056;2022-12-18T04:34:04;-8.20;1.00
506;DHT22;551;48.524;9.056;2022-12-18T04:36:29;-8.30;1.00
506;DHT22;551;48.524;9.056;2022-12-18T04:38:55;-8.50;1.00
506;DHT22;551;48.524;9.056;2022-12-18T04:41:21;-8.60;1.00
506;DHT22;551;48.524;9.056;2022-12-18T04:43:46;-8.60;1.00
506;DHT22;551;48.524;9.056;2022-12-18T04:46:12;-8.60;1.00
506;DHT22;551;48.524;9.056;2022-12-18T04:48:38;-8.60;1.00
506;DHT22;551;48.524;9.056;2022-12-18T04:51:05;-8.60;1.00
506;DHT22;551;48.524;9.056;2022-12-18T04:53:31;-8.50;1.00
506;DHT22;551;48.524;9.056;2022-12-18T04:56:23;-8.40;1.00
506;DHT22;551;48.524;9.056;2022-12-18T04:58:49;-8.40;1.00
506;DHT22;551;48.524;9.056;2022-12-18T05:01:15;-8.40;1.00
506;DHT22;551;48.524;9.056;2022-12-18T05:03:42;-8.20;1.00
506;DHT22;551;48.524;9.056;2022-12-18T05:06:08;-8.20;1.00
506;DHT22;551;48.524;9.056;2022-12-18T05:08:34;-7.80;1.00
506;DHT22;551;48.524;9.056;2022-12-18T05:11:01;-7.80;1.00
506;DHT22;551;48.524;9.056;2022-12-18T05:13:28;-7.80;1.00
506;DHT22;551;48.524;9.056;2022-12-18T05:15:54;-8.10;1.00
506;DHT22;551;48.524;9.056;2022-12-18T05:18:20;-7.90;1.00
506;DHT22;551;48.524;9.056;2022-12-18T05:20:45;-8.20;1.00
506;DHT22;551;48.524;9.056;2022-12-18T05:23:11;-8.30;1.00
506;DHT22;551;48.524;9.056;2022-12-18T05:25:36;-8.20;1.00
506;DHT22;551;48.524;9.056;2022-12-18T05:28:02;-8.30;1.00
506;DHT22;551;48.524;9.056;2022-12-18T05:30:27;-8.40;1.00
506;DHT22;551;48.524;9.056;2022-12-18T05:32:53;-8.40;1.00
506;DHT22;551;48.524;9.056;2022-12-18T05:35:19;-8.50;1.00
506;DHT22;551;48.524;9.056;2022-12-18T05:37:44;-8.60;1.00
506;DHT22;551;48.524;9.056;2022-12-18T05:40:13;-8.60;1.00
506;DHT22;551;48.524;9.056;2022-12-18T05:42:38;-8.60;1.00
506;DHT22;551;48.524;9.056;2022-12-18T05:45:05;-8.60;1.00
506;DHT22;551;48.524;9.056;2022-12-18T05:47:30;-8.60;1.00
506;DHT22;551;48.524;9.056;2022-12-18T05:49:56;-8.60;1.00
506;DHT22;551;48.524;9.056;2022-12-18T05:52:21;-8.60;1.00
506;DHT22;551;48.524;9.056;2022-12-18T05:54:47;-8.60;1.00
506;DHT22;551;48.524;9.056;2022-12-18T05:57:13;-8.50;1.00
506;DHT22;551;48.524;9.056;2022-12-18T05:59:38;-8.60;1.00
506;DHT22;551;48.524;9.056;2022-12-18T06:02:04;-8.50;1.00
506;DHT22;551;48.524;9.056;2022-12-18T06:04:29;-8.30;1.00
506;DHT22;551;48.524;9.056;2022-12-18T06:06:55;-8.20;1.00
506;DHT22;551;48.524;9.056;2022-12-18T06:09:20;-8.30;1.00
506;DHT22;551;48.524;9.056;2022-12-18T06:11:46;-8.50;1.00
506;DHT22;551;48.524;9.056;2022-12-18T06:14:11;-8.50;1.00
506;DHT22;551;48.524;9.056;2022-12-18T06:16:37;-8.50;1.00
506;DHT22;551;48.524;9.056;2022-12-18T06:19:04;-8.50;1.00
506;DHT22;551;48.524;9.056;2022-12-18T06:21:30;-8.60;1.00
506;DHT22;551;48.524;9.056;2022-12-18T06:23:56;-8.60;1.00
506;DHT22;551;48.524;9.056;2022-12-18T06:26:22;-8.50;1.00
506;DHT22;551;48.524;9.056;2022-12-18T06:28:47;-8.30;1.00
506;DHT22;551;48.524;9.056;2022-12-18T06:31:13;-8.30;1.00
506;DHT22;551;48.524;9.056;2022-12-18T06:33:39;-8.40;1.00
506;DHT22;551;48.524;9.056;2022-12-18T06:36:09;-8.40;1.00
506;DHT22;551;48.524;9.056;2022-12-18T06:38:37;-8.50;1.00
506;DHT22;551;48.524;9.056;2022-12-18T06:41:20;-8.60;1.00
506;DHT22;551;48.524;9.056;2022-12-18T06:43:46;-8.60;1.00
506;DHT22;551;48.524;9.056;2022-12-18T06:46:12;-8.50;1.00
506;DHT22;551;48.524;9.056;2022-12-18T06:48:38;-8.50;1.00
506;DHT22;551;48.524;9.056;2022-12-18T06:51:04;-8.40;1.00
506;DHT22;551;48.524;9.056;2022-12-18T06:53:29;-8.40;1.00
506;DHT22;551;48.524;9.056;2022-12-18T06:56:06;-8.50;1.00
506;DHT22;551;48.524;9.056;2022-12-18T06:58:32;-8.60;1.00
506;DHT22;551;48.524;9.056;2022-12-18T07:01:02;-8.80;1.00
506;DHT22;551;48.524;9.056;2022-12-18T07:03:28;-8.80;1.00
506;DHT22;551;48.524;9.056;2022-12-18T07:05:53;-8.90;1.00
506;DHT22;551;48.524;9.056;2022-12-18T07:08:19;-8.90;1.00
506;DHT22;551;48.524;9.056;2022-12-18T07:10:44;-8.90;1.00
506;DHT22;551;48.524;9.056;2022-12-18T07:13:10;-8.80;1.00
506;DHT22;551;48.524;9.056;2022-12-18T07:15:36;-8.70;1.00
506;DHT22;551;48.524;9.056;2022-12-18T07:18:01;-8.70;1.00
506;DHT22;551;48.524;9.056;2022-12-18T07:20:27;-8.50;1.00
506;DHT22;551;48.524;9.056;2022-12-18T07:22:52;-8.70;1.00
506;DHT22;551;48.524;9.056;2022-12-18T07:25:18;-8.20;1.00
506;DHT22;551;48.524;9.056;2022-12-18T07:27:43;-8.20;1.00
506;DHT22;551;48.524;9.056;2022-12-18T07:30:09;-8.20;1.00
506;DHT22;551;48.524;9.056;2022-12-18T07:32:35;-7.90;1.00
506;DHT22;551;48.524;9.056;2022-12-18T07:35:00;-7.70;1.00
506;DHT22;551;48.524;9.056;2022-12-18T07:37:26;-8.30;1.00
506;DHT22;551;48.524;9.056;2022-12-18T07:39:51;-8.30;1.00
506;DHT22;551;48.524;9.056;2022-12-18T07:42:17;-8.30;1.00
506;DHT22;551;48.524;9.056;2022-12-18T07:44:58;-8.40;1.00
506;DHT22;551;48.524;9.056;2022-12-18T07:47:25;-8.30;1.00
506;DHT22;551;48.524;9.056;2022-12-18T07:49:50;-8.20;1.00
506;DHT22;551;48.524;9.056;2022-12-18T07:52:16;-8.20;1.00
506;DHT22;551;48.524;9.056;2022-12-18T07:54:41;-8.40;1.00
506;DHT22;551;48.524;9.056;2022-12-18T07:57:07;-8.50;1.00
506;DHT22;551;48.524;9.056;2022-12-18T07:59:33;-8.50;1.00
506;DHT22;551;48.524;9.056;2022-12-18T08:01:58;-8.60;1.00
506;DHT22;551;48.524;9.056;2022-12-18T08:04:24;-8.60;1.00
506;DHT22;551;48.524;9.056;2022-12-18T08:06:50;-8.40;1.00
506;DHT22;551;48.524;9.056;2022-12-18T08:09:15;-8.50;1.00
506;DHT22;551;48.524;9.056;2022-12-18T08:11:41;-8.60;1.00
506;DHT22;551;48.524;9.056;2022-12-18T08:14:06;-8.70;1.00
506;DHT22;551;48.524;9.056;2022-12-18T08:16:32;-8.60;1.00
506;DHT22;551;48.524;9.056;2022-12-18T08:18:58;-8.50;1.00
506;DHT22;551;48.524;9.056;2022-12-18T08:21:26;-8.50;1.00
506;DHT22;551;48.524;9.056;2022-12-18T08:23:54;-8.50;1.00
506;DHT22;551;48.524;9.056;2022-12-18T08:26:20;-8.30;1.00
506;DHT22;551;48.524;9.056;2022-12-18T08:28:45;-8.10;1.00
506;DHT22;551;48.524;9.056;2022-12-18T08:31:11;-8.00;1.00
506;DHT22;551;48.524;9.056;2022-12-18T08:33:38;-8.00;1.00
506;DHT22;551;48.524;9.056;2022-12-18T08:36:05;-8.10;1.00
506;DHT22;551;48.524;9.056;2022-12-18T08:38:32;-7.70;1.00
506;DHT22;551;48.524;9.056;2022-12-18T08:41:01;-6.90;1.00
506;DHT22;551;48.524;9.056;2022-12-18T08:43:27;-6.10;1.00
506;DHT22;551;48.524;9.056;2022-12-18T08:46:12;-4.90;1.00
506;DHT22;551;48.524;9.056;2022-12-18T08:48:38;-4.20;1.00
506;DHT22;551;48.524;9.056;2022-12-18T08:51:03;-4.00;1.00
506;DHT22;551;48.524;9.056;2022-12-18T08:53:29;-3.90;1.00
506;DHT22;551;48.524;9.056;2022-12-18T08:55:56;-3.90;1.00
506;DHT22;551;48.524;9.056;2022-12-18T08:58:22;-3.40;1.00
506;DHT22;551;48.524;9.056;2022-12-18T09:00:48;-3.20;1.00
506;DHT22;551;48.524;9.056;2022-12-18T09:03:18;-3.20;1.00
506;DHT22;551;48.524;9.056;2022-12-18T09:05:45;-3.10;1.00
506;DHT22;551;48.524;9.056;2022-12-18T09:08:12;-2.40;1.00
506;DHT22;551;48.524;9.056;2022-12-18T09:10:45;-2.40;1.00
506;DHT22;551;48.524;9.056;2022-12-18T09:13:12;-1.70;1.00
506;DHT22;551;48.524;9.056;2022-12-18T09:15:55;-1.40;1.00
506;DHT22;551;48.524;9.056;2022-12-18T09:18:22;-1.60;1.00
506;DHT22;551;48.524;9.056;2022-12-18T09:20:48;-1.30;1.00
506;DHT22;551;48.524;9.056;2022-12-18T09:23:15;-1.10;1.00
506;DHT22;551;48.524;9.056;2022-12-18T09:25:40;-0.60;1.00
506;DHT22;551;48.524;9.056;2022-12-18T09:28:11;-0.10;1.00
506;DHT22;551;48.524;9.056;2022-12-18T09:30:38;0.20;1.00
506;DHT22;551;48.524;9.056;2022-12-18T09:33:04;0.20;1.00
506;DHT22;551;48.524;9.056;2022-12-18T09:35:30;0.30;1.00
506;DHT22;551;48.524;9.056;2022-12-18T09:37:55;0.40;1.00
506;DHT22;551;48.524;9.056;2022-12-18T09:40:24;0.50;1.00
506;DHT22;551;48.524;9.056;2022-12-18T09:42:58;0.70;1.00
506;DHT22;551;48.524;9.056;2022-12-18T09:45:25;0.50;1.00
506;DHT22;551;48.524;9.056;2022-12-18T09:47:52;0.70;1.00
506;DHT22;551;48.524;9.056;2022-12-18T09:50:30;0.60;1.00
506;DHT22;551;48.524;9.056;2022-12-18T09:53:05;1.00;1.00
506;DHT22;551;48.524;9.056;2022-12-18T09:55:38;1.10;1.00
506;DHT22;551;48.524;9.056;2022-12-18T09:58:30;0.90;1.00
506;DHT22;551;48.524;9.056;2022-12-18T10:01:00;1.00;1.00
506;DHT22;551;48.524;9.056;2022-12-18T10:03:25;1.50;1.00
506;DHT22;551;48.524;9.056;2022-12-18T10:10:56;2.20;1.00
506;DHT22;551;48.524;9.056;2022-12-18T10:13:34;2.40;1.00
506;DHT22;551;48.524;9.056;2022-12-18T10:16:08;2.20;1.00
506;DHT22;551;48.524;9.056;2022-12-18T10:21:12;2.40;1.00
506;DHT22;551;48.524;9.056;2022-12-18T10:23:53;2.90;1.00
506;DHT22;551;48.524;9.056;2022-12-18T10:26:24;2.80;1.00
506;DHT22;551;48.524;9.056;2022-12-18T10:28:51;2.60;1.00
506;DHT22;551;48.524;9.056;2022-12-18T10:31:23;3.00;1.00
506;DHT22;551;48.524;9.056;2022-12-18T10:33:49;2.40;1.00
506;DHT22;551;48.524;9.056;2022-12-18T10:36:14;2.70;1.00
506;DHT22;551;48.524;9.056;2022-12-18T10:38:41;2.70;1.00
506;DHT22;551;48.524;9.056;2022-12-18T10:41:24;3.40;1.00
506;DHT22;551;48.524;9.056;2022-12-18T10:44:12;2.80;1.00
506;DHT22;551;48.524;9.056;2022-12-18T10:46:38;2.60;1.00
506;DHT22;551;48.524;9.056;2022-12-18T10:49:04;2.50;1.00
506;DHT22;551;48.524;9.056;2022-12-18T10:51:34;2.50;1.00
506;DHT22;551;48.524;9.056;2022-12-18T10:54:05;2.40;1.00
506;DHT22;551;48.524;9.056;2022-12-18T10:56:35;1.90;1.00
506;DHT22;551;48.524;9.056;2022-12-18T10:59:04;1.60;1.00
506;DHT22;551;48.524;9.056;2022-12-18T11:01:55;1.50;1.00
506;DHT22;551;48.524;9.056;2022-12-18T11:04:26;1.60;1.00
506;DHT22;551;48.524;9.056;2022-12-18T11:07:01;1.70;1.00
506;DHT22;551;48.524;9.056;2022-12-18T11:09:38;1.80;1.00
506;DHT22;551;48.524;9.056;2022-12-18T11:12:15;2.00;1.00
506;DHT22;551;48.524;9.056;2022-12-18T11:19:52;3.70;1.00
506;DHT22;551;48.524;9.056;2022-12-18T11:22:27;3.40;1.00
506;DHT22;551;48.524;9.056;2022-12-18T11:25:25;3.30;1.00
506;DHT22;551;48.524;9.056;2022-12-18T11:27:56;4.20;1.00
506;DHT22;551;48.524;9.056;2022-12-18T11:30:27;3.70;1.00
506;DHT22;551;48.524;9.056;2022-12-18T11:33:04;3.80;1.00
506;DHT22;551;48.524;9.056;2022-12-18T11:35:47;4.00;1.00
506;DHT22;551;48.524;9.056;2022-12-18T11:40:49;3.90;1.00
506;DHT22;551;48.524;9.056;2022-12-18T11:43:23;4.00;1.00
506;DHT22;551;48.524;9.056;2022-12-18T11:45:59;3.80;1.00
506;DHT22;551;48.524;9.056;2022-12-18T11:48:30;3.90;1.00
506;DHT22;551;48.524;9.056;2022-12-18T11:51:00;3.80;1.00
506;DHT22;551;48.524;9.056;2022-12-18T11:53:27;3.90;1.00
506;DHT22;551;48.524;9.056;2022-12-18T11:56:14;3.80;1.00
506;DHT22;551;48.524;9.056;2022-12-18T11:58:51;3.60;1.00
506;DHT22;551;48.524;9.056;2022-12-18T12:02:25;3.60;1.00
506;DHT22;551;48.524;9.056;2022-12-18T12:04:37;3.60;1.00
506;DHT22;551;48.524;9.056;2022-12-18T12:07:31;3.50;1.00
506;DHT22;551;48.524;9.056;2022-12-18T12:10:27;3.60;1.00
506;DHT22;551;48.524;9.056;2022-12-18T12:13:20;3.40;1.00
506;DHT22;551;48.524;9.056;2022-12-18T12:18:43;2.90;1.00
506;DHT22;551;48.524;9.056;2022-12-18T12:21:28;2.50;1.00
506;DHT22;551;48.524;9.056;2022-12-18T12:24:31;2.50;1.00
506;DHT22;551;48.524;9.056;2022-12-18T12:27:20;2.30;1.00
506;DHT22;551;48.524;9.056;2022-12-18T12:30:18;2.90;1.00
506;DHT22;551;48.524;9.056;2022-12-18T12:36:08;2.40;1.00
506;DHT22;551;48.524;9.056;2022-12-18T12:38:37;2.70;1.00
506;DHT22;551;48.524;9.056;2022-12-18T12:41:09;2.60;1.00
506;DHT22;551;48.524;9.056;2022-12-18T12:43:58;2.40;1.00
506;DHT22;551;48.524;9.056;2022-12-18T12:46:25;2.60;1.00
506;DHT22;551;48.524;9.056;2022-12-18T12:48:58;2.10;1.00
506;DHT22;551;48.524;9.056;2022-12-18T12:51:25;1.70;1.00
506;DHT22;551;48.524;9.056;2022-12-18T12:53:52;1.50;1.00
506;DHT22;551;48.524;9.056;2022-12-18T12:56:20;1.20;1.00
506;DHT22;551;48.524;9.056;2022-12-18T13:07:32;1.10;1.00
506;DHT22;551;48.524;9.056;2022-12-18T13:10:35;0.90;1.00
506;DHT22;551;48.524;9.056;2022-12-18T13:13:07;0.90;1.00
506;DHT22;551;48.524;9.056;2022-12-18T13:15:48;0.80;1.00
506;DHT22;551;48.524;9.056;2022-12-18T13:18:16;0.50;1.00
506;DHT22;551;48.524;9.056;2022-12-18T13:20:43;0.60;1.00
506;DHT22;551;48.524;9.056;2022-12-18T13:25:51;0.40;1.00
506;DHT22;551;48.524;9.056;2022-12-18T13:28:21;0.20;1.00
506;DHT22;551;48.524;9.056;2022-12-18T13:30:56;0.00;1.00
506;DHT22;551;48.524;9.056;2022-12-18T13:38:33;-0.30;1.00
506;DHT22;551;48.524;9.056;2022-12-18T13:41:01;0.10;1.00
506;DHT22;551;48.524;9.056;2022-12-18T13:43:44;0.20;1.00
506;DHT22;551;48.524;9.056;2022-12-18T13:46:29;-0.10;1.00
506;DHT22;551;48.524;9.056;2022-12-18T13:49:20;0.00;1.00
506;DHT22;551;48.524;9.056;2022-12-18T13:51:49;0.00;1.00
506;DHT22;551;48.524;9.056;2022-12-18T13:54:34;0.10;1.00
506;DHT22;551;48.524;9.056;2022-12-18T13:57:01;0.10;1.00
506;DHT22;551;48.524;9.056;2022-12-18T13:59:36;0.10;1.00
506;DHT22;551;48.524;9.056;2022-12-18T14:02:23;0.20;1.00
506;DHT22;551;48.524;9.056;2022-12-18T14:04:49;0.30;1.00
506;DHT22;551;48.524;9.056;2022-12-18T14:07:26;0.40;1.00
506;DHT22;551;48.524;9.056;2022-12-18T14:09:58;0.60;1.00
506;DHT22;551;48.524;9.056;2022-12-18T14:12:27;0.20;1.00
506;DHT22;551;48.524;9.056;2022-12-18T14:18:02;-0.20;1.00
506;DHT22;551;48.524;9.056;2022-12-18T14:20:31;-0.30;1.00
506;DHT22;551;48.524;9.056;2022-12-18T14:22:58;-0.40;1.00
506;DHT22;551;48.524;9.056;2022-12-18T14:25:29;-0.50;1.00
506;DHT22;551;48.524;9.056;2022-12-18T14:30:36;-0.60;1.00
506;DHT22;551;48.524;9.056;2022-12-18T14:33:22;-0.70;1.00
506;DHT22;551;48.524;9.056;2022-12-18T14:43:40;-1.00;1.00
506;DHT22;551;48.524;9.056;2022-12-18T14:46:26;-1.00;1.00
506;DHT22;551;48.524;9.056;2022-12-18T14:48:53;-1.10;1.00
506;DHT22;551;48.524;9.056;2022-12-18T14:51:24;-1.20;1.00
506;DHT22;551;48.524;9.056;2022-12-18T14:56:34;-1.20;1.00
506;DHT22;551;48.524;9.056;2022-12-18T14:59:05;-1.30;1.00
506;DHT22;551;48.524;9.056;2022-12-18T15:01:37;-1.40;1.00
506;DHT22;551;48.524;9.056;2022-12-18T15:04:05;-1.40;1.00
506;DHT22;551;48.524;9.056;2022-12-18T15:06:48;-1.40;1.00
506;DHT22;551;48.524;9.056;2022-12-18T15:09:24;-1.50;1.00
506;DHT22;551;48.524;9.056;2022-12-18T15:11:56;-1.60;1.00
506;DHT22;551;48.524;9.056;2022-12-18T15:16:55;-1.70;1.00
506;DHT22;551;48.524;9.056;2022-12-18T15:19:42;-1.80;1.00
506;DHT22;551;48.524;9.056;2022-12-18T15:22:28;-1.80;1.00
506;DHT22;551;48.524;9.056;2022-12-18T15:24:55;-1.90;1.00
506;DHT22;551;48.524;9.056;2022-12-18T15:27:29;-1.90;1.00
506;DHT22;551;48.524;9.056;2022-12-18T15:32:42;-2.00;1.00
506;DHT22;551;48.524;9.056;2022-12-18T15:35:14;-2.20;1.00
506;DHT22;551;48.524;9.056;2022-12-18T15:37:40;-2.20;1.00
506;DHT22;551;48.524;9.056;2022-12-18T15:40:06;-2.30;1.00
506;DHT22;551;48.524;9.056;2022-12-18T15:42:32;-2.30;1.00
506;DHT22;551;48.524;9.056;2022-12-18T15:45:17;-2.30;1.00
506;DHT22;551;48.524;9.056;2022-12-18T15:47:45;-2.40;1.00
506;DHT22;551;48.524;9.056;2022-12-18T15:50:11;-2.50;1.00
506;DHT22;551;48.524;9.056;2022-12-18T15:52:44;-2.60;1.00
506;DHT22;551;48.524;9.056;2022-12-18T15:55:15;-2.60;1.00
506;DHT22;551;48.524;9.056;2022-12-18T15:57:59;-2.60;1.00
506;DHT22;551;48.524;9.056;2022-12-18T16:00:24;-2.70;1.00
506;DHT22;551;48.524;9.056;2022-12-18T16:02:50;-2.70;1.00
506;DHT22;551;48.524;9.056;2022-12-18T16:05:18;-2.70;1.00
506;DHT22;551;48.524;9.056;2022-12-18T16:07:44;-2.80;1.00
506;DHT22;551;48.524;9.056;2022-12-18T16:10:10;-2.80;1.00
506;DHT22;551;48.524;9.056;2022-12-18T16:12:36;-2.80;1.00
506;DHT22;551;48.524;9.056;2022-12-18T16:15:03;-2.90;1.00
506;DHT22;551;48.524;9.056;2022-12-18T16:17:29;-3.20;1.00
506;DHT22;551;48.524;9.056;2022-12-18T16:19:55;-3.20;1.00
506;DHT22;551;48.524;9.056;2022-12-18T16:22:25;-3.20;1.00
506;DHT22;551;48.524;9.056;2022-12-18T16:24:52;-3.30;1.00
506;DHT22;551;48.524;9.056;2022-12-18T16:27:19;-3.30;1.00
506;DHT22;551;48.524;9.056;2022-12-18T16:29:44;-3.40;1.00
506;DHT22;551;48.524;9.056;2022-12-18T16:32:18;-3.30;1.00
506;DHT22;551;48.524;9.056;2022-12-18T16:34:45;-3.30;1.00
506;DHT22;551;48.524;9.056;2022-12-18T16:37:13;-3.20;1.00
506;DHT22;551;48.524;9.056;2022-12-18T16:39:40;-3.20;1.00
506;DHT22;551;48.524;9.056;2022-12-18T16:42:10;-3.40;1.00
506;DHT22;551;48.524;9.056;2022-12-18T16:44:39;-3.40;1.00
506;DHT22;551;48.524;9.056;2022-12-18T16:47:05;-3.60;1.00
506;DHT22;551;48.524;9.056;2022-12-18T16:49:31;-3.60;1.00
506;DHT22;551;48.524;9.056;2022-12-18T16:51:56;-3.60;1.00
506;DHT22;551;48.524;9.056;2022-12-18T16:54:22;-3.60;1.00
506;DHT22;551;48.524;9.056;2022-12-18T16:56:48;-3.50;1.00
506;DHT22;551;48.524;9.056;2022-12-18T16:59:15;-3.50;1.00
506;DHT22;551;48.524;9.056;2022-12-18T17:01:41;-3.50;1.00
506;DHT22;551;48.524;9.056;2022-12-18T17:04:07;-3.40;1.00
506;DHT22;551;48.524;9.056;2022-12-18T17:06:38;-3.40;1.00
506;DHT22;551;48.524;9.056;2022-12-18T17:09:06;-3.30;1.00
506;DHT22;551;48.524;9.056;2022-12-18T17:11:33;-3.20;1.00
506;DHT22;551;48.524;9.056;2022-12-18T17:14:04;-3.20;1.00
506;DHT22;551;48.524;9.056;2022-12-18T17:16:30;-3.20;1.00
506;DHT22;551;48.524;9.056;2022-12-18T17:18:55;-3.30;1.00
506;DHT22;551;48.524;9.056;2022-12-18T17:21:21;-3.20;1.00
506;DHT22;551;48.524;9.056;2022-12-18T17:23:47;-3.20;1.00
506;DHT22;551;48.524;9.056;2022-12-18T17:26:13;-3.20;1.00
506;DHT22;551;48.524;9.056;2022-12-18T17:28:39;-3.20;1.00
506;DHT22;551;48.524;9.056;2022-12-18T17:31:17;-3.20;1.00
506;DHT22;551;48.524;9.056;2022-12-18T17:33:43;-3.20;1.00
506;DHT22;551;48.524;9.056;2022-12-18T17:36:10;-3.20;1.00
506;DHT22;551;48.524;9.056;2022-12-18T17:38:35;-3.20;1.00
506;DHT22;551;48.524;9.056;2022-12-18T17:41:02;-3.30;1.00
506;DHT22;551;48.524;9.056;2022-12-18T17:43:28;-3.30;1.00
506;DHT22;551;48.524;9.056;2022-12-18T17:45:54;-3.30;1.00
506;DHT22;551;48.524;9.056;2022-12-18T17:48:19;-3.30;1.00
506;DHT22;551;48.524;9.056;2022-12-18T17:50:45;-3.20;1.00
506;DHT22;551;48.524;9.056;2022-12-18T17:53:10;-3.30;1.00
506;DHT22;551;48.524;9.056;2022-12-18T17:55:36;-3.30;1.00
506;DHT22;551;48.524;9.056;2022-12-18T17:58:01;-3.30;1.00
506;DHT22;551;48.524;9.056;2022-12-18T18:00:27;-3.30;1.00
506;DHT22;551;48.524;9.056;2022-12-18T18:02:53;-3.40;1.00
506;DHT22;551;48.524;9.056;2022-12-18T18:05:19;-3.30;1.00
506;DHT22;551;48.524;9.056;2022-12-18T18:07:44;-3.40;1.00
506;DHT22;551;48.524;9.056;2022-12-18T18:10:10;-3.30;1.00
506;DHT22;551;48.524;9.056;2022-12-18T18:12:36;-3.20;1.00
506;DHT22;551;48.524;9.056;2022-12-18T18:15:20;-3.20;1.00
506;DHT22;551;48.524;9.056;2022-12-18T18:17:46;-3.10;1.00
506;DHT22;551;48.524;9.056;2022-12-18T18:20:11;-3.00;1.00
506;DHT22;551;48.524;9.056;2022-12-18T18:22:39;-2.90;1.00
506;DHT22;551;48.524;9.056;2022-12-18T18:25:05;-3.00;1.00
506;DHT22;551;48.524;9.056;2022-12-18T18:27:30;-2.90;1.00
506;DHT22;551;48.524;9.056;2022-12-18T18:29:56;-2.90;1.00